Sao Paulo, Brazil
Current Conditions -  °F | °C
As of 8:00 PM on Monday 22 Dec 2014 (Local Time) from SBMT Reporting Station
Thunderstorm Thunderstorm  
Wind Chill: 70°   Ceiling: 1200
Heat Index: 70°   Visibility: 2.5mi
Dew Point: 66°   Wind: 2mph
Humidity: 88%   Direction: 70°ENE
Pressure: 29.97"   Gusts: NA
Location:  23.53°S, 46.63°W
Report Text: SBMT 222200Z 07002KT 4000 1600E -TSRA BR BKN012 FEW035CB BKN060 21/19 Q1015 RERA
Loading
Personal Weather Stations






























Interactive Weather Map New forecast layout! Learn more

10-Day Weather Forecast

Advertisements
Track Severe Weather on mobile